sensor_id;sensor_type;location;lat;lon;timestamp;P1;durP1;ratioP1;P2;durP2;ratioP2
51824;SDS011;37879;52.986;6.282;2023-09-30T00:00:56;8.07;;;2.75;;
51824;SDS011;37879;52.986;6.282;2023-09-30T00:03:22;9.23;;;3.30;;
51824;SDS011;37879;52.986;6.282;2023-09-30T00:05:48;7.45;;;3.30;;
51824;SDS011;37879;52.986;6.282;2023-09-30T00:08:13;8.70;;;3.60;;
51824;SDS011;37879;52.986;6.282;2023-09-30T00:10:39;6.95;;;3.42;;
51824;SDS011;37879;52.986;6.282;2023-09-30T00:13:05;7.18;;;3.00;;
51824;SDS011;37879;52.986;6.282;2023-09-30T00:15:32;5.97;;;2.72;;
51824;SDS011;37879;52.986;6.282;2023-09-30T00:17:58;11.35;;;3.85;;
51824;SDS011;37879;52.986;6.282;2023-09-30T00:20:24;10.70;;;3.65;;
51824;SDS011;37879;52.986;6.282;2023-09-30T00:22:49;13.18;;;3.45;;
51824;SDS011;37879;52.986;6.282;2023-09-30T00:25:15;11.50;;;3.30;;
51824;SDS011;37879;52.986;6.282;2023-09-30T00:27:41;9.23;;;3.25;;
51824;SDS011;37879;52.986;6.282;2023-09-30T00:30:06;12.63;;;3.47;;
51824;SDS011;37879;52.986;6.282;2023-09-30T00:32:32;9.80;;;3.47;;
51824;SDS011;37879;52.986;6.282;2023-09-30T00:34:58;9.85;;;2.95;;
51824;SDS011;37879;52.986;6.282;2023-09-30T00:37:26;5.75;;;2.85;;
51824;SDS011;37879;52.986;6.282;2023-09-30T00:39:52;13.38;;;3.55;;
51824;SDS011;37879;52.986;6.282;2023-09-30T00:42:18;9.25;;;3.13;;
51824;SDS011;37879;52.986;6.282;2023-09-30T00:44:45;12.13;;;4.20;;
51824;SDS011;37879;52.986;6.282;2023-09-30T00:47:12;8.80;;;3.08;;
51824;SDS011;37879;52.986;6.282;2023-09-30T00:49:40;7.25;;;2.90;;
51824;SDS011;37879;52.986;6.282;2023-09-30T00:52:08;8.10;;;3.05;;
51824;SDS011;37879;52.986;6.282;2023-09-30T00:54:35;6.18;;;2.80;;
51824;SDS011;37879;52.986;6.282;2023-09-30T00:57:03;8.32;;;2.78;;
51824;SDS011;37879;52.986;6.282;2023-09-30T00:59:29;8.85;;;3.35;;
51824;SDS011;37879;52.986;6.282;2023-09-30T01:01:57;9.38;;;3.40;;
51824;SDS011;37879;52.986;6.282;2023-09-30T01:04:26;9.88;;;3.60;;
51824;SDS011;37879;52.986;6.282;2023-09-30T01:06:52;8.50;;;2.83;;
51824;SDS011;37879;52.986;6.282;2023-09-30T01:09:18;9.40;;;3.63;;
51824;SDS011;37879;52.986;6.282;2023-09-30T01:11:45;8.80;;;3.22;;
51824;SDS011;37879;52.986;6.282;2023-09-30T01:14:23;11.95;;;3.42;;
51824;SDS011;37879;52.986;6.282;2023-09-30T01:16:50;9.15;;;3.72;;
51824;SDS011;37879;52.986;6.282;2023-09-30T01:19:16;8.73;;;3.17;;
51824;SDS011;37879;52.986;6.282;2023-09-30T01:21:41;7.28;;;2.55;;
51824;SDS011;37879;52.986;6.282;2023-09-30T01:24:10;6.47;;;2.72;;
51824;SDS011;37879;52.986;6.282;2023-09-30T01:26:35;5.15;;;2.72;;
51824;SDS011;37879;52.986;6.282;2023-09-30T01:29:01;8.43;;;3.33;;
51824;SDS011;37879;52.986;6.282;2023-09-30T01:31:27;8.25;;;2.92;;
51824;SDS011;37879;52.986;6.282;2023-09-30T01:33:53;6.60;;;2.50;;
51824;SDS011;37879;52.986;6.282;2023-09-30T01:36:19;11.43;;;2.83;;
51824;SDS011;37879;52.986;6.282;2023-09-30T01:38:45;6.35;;;2.90;;
51824;SDS011;37879;52.986;6.282;2023-09-30T01:41:11;7.38;;;2.53;;
51824;SDS011;37879;52.986;6.282;2023-09-30T01:43:36;8.20;;;2.97;;
51824;SDS011;37879;52.986;6.282;2023-09-30T01:46:02;10.90;;;2.38;;
51824;SDS011;37879;52.986;6.282;2023-09-30T01:48:30;10.00;;;2.80;;
51824;SDS011;37879;52.986;6.282;2023-09-30T01:50:56;8.68;;;2.50;;
51824;SDS011;37879;52.986;6.282;2023-09-30T01:53:21;6.63;;;2.60;;
51824;SDS011;37879;52.986;6.282;2023-09-30T01:55:47;7.65;;;2.45;;
51824;SDS011;37879;52.986;6.282;2023-09-30T01:58:13;8.45;;;2.30;;
51824;SDS011;37879;52.986;6.282;2023-09-30T02:00:38;13.95;;;3.45;;
51824;SDS011;37879;52.986;6.282;2023-09-30T02:03:04;5.30;;;2.40;;
51824;SDS011;37879;52.986;6.282;2023-09-30T02:05:30;13.15;;;3.00;;
51824;SDS011;37879;52.986;6.282;2023-09-30T02:07:55;9.15;;;3.08;;
51824;SDS011;37879;52.986;6.282;2023-09-30T02:10:21;7.55;;;3.05;;
51824;SDS011;37879;52.986;6.282;2023-09-30T02:12:47;8.13;;;2.50;;
51824;SDS011;37879;52.986;6.282;2023-09-30T02:15:13;7.20;;;2.92;;
51824;SDS011;37879;52.986;6.282;2023-09-30T02:17:39;8.70;;;3.40;;
51824;SDS011;37879;52.986;6.282;2023-09-30T02:20:10;11.73;;;3.38;;
51824;SDS011;37879;52.986;6.282;2023-09-30T02:22:40;5.45;;;2.42;;
51824;SDS011;37879;52.986;6.282;2023-09-30T02:25:07;11.85;;;3.85;;
51824;SDS011;37879;52.986;6.282;2023-09-30T02:27:33;7.95;;;2.58;;
51824;SDS011;37879;52.986;6.282;2023-09-30T02:29:59;7.95;;;3.45;;
51824;SDS011;37879;52.986;6.282;2023-09-30T02:32:25;12.40;;;3.75;;
51824;SDS011;37879;52.986;6.282;2023-09-30T02:34:50;11.38;;;3.75;;
51824;SDS011;37879;52.986;6.282;2023-09-30T02:37:16;13.88;;;3.80;;
51824;SDS011;37879;52.986;6.282;2023-09-30T02:39:43;8.80;;;3.28;;
51824;SDS011;37879;52.986;6.282;2023-09-30T02:42:09;7.55;;;3.17;;
51824;SDS011;37879;52.986;6.282;2023-09-30T02:44:35;6.18;;;3.15;;
51824;SDS011;37879;52.986;6.282;2023-09-30T02:47:01;8.60;;;4.20;;
51824;SDS011;37879;52.986;6.282;2023-09-30T02:49:27;13.48;;;4.00;;
51824;SDS011;37879;52.986;6.282;2023-09-30T02:51:53;9.68;;;2.83;;
51824;SDS011;37879;52.986;6.282;2023-09-30T02:54:18;13.40;;;3.60;;
51824;SDS011;37879;52.986;6.282;2023-09-30T02:56:44;8.75;;;3.55;;
51824;SDS011;37879;52.986;6.282;2023-09-30T02:59:11;8.32;;;2.83;;
51824;SDS011;37879;52.986;6.282;2023-09-30T03:01:38;9.95;;;3.70;;
51824;SDS011;37879;52.986;6.282;2023-09-30T03:04:03;8.25;;;3.65;;
51824;SDS011;37879;52.986;6.282;2023-09-30T03:06:32;8.07;;;3.50;;
51824;SDS011;37879;52.986;6.282;2023-09-30T03:09:02;8.48;;;3.47;;
51824;SDS011;37879;52.986;6.282;2023-09-30T03:11:29;10.20;;;4.13;;
51824;SDS011;37879;52.986;6.282;2023-09-30T03:13:59;11.82;;;3.88;;
51824;SDS011;37879;52.986;6.282;2023-09-30T03:16:24;8.25;;;3.67;;
51824;SDS011;37879;52.986;6.282;2023-09-30T03:18:50;8.43;;;3.97;;
51824;SDS011;37879;52.986;6.282;2023-09-30T03:21:16;10.93;;;3.92;;
51824;SDS011;37879;52.986;6.282;2023-09-30T03:23:42;10.45;;;4.25;;
51824;SDS011;37879;52.986;6.282;2023-09-30T03:26:08;10.05;;;4.03;;
51824;SDS011;37879;52.986;6.282;2023-09-30T03:28:38;10.27;;;3.67;;
51824;SDS011;37879;52.986;6.282;2023-09-30T03:31:04;9.43;;;4.35;;
51824;SDS011;37879;52.986;6.282;2023-09-30T03:33:31;7.82;;;3.75;;
51824;SDS011;37879;52.986;6.282;2023-09-30T03:35:57;12.20;;;3.92;;
51824;SDS011;37879;52.986;6.282;2023-09-30T03:38:23;9.30;;;3.92;;
51824;SDS011;37879;52.986;6.282;2023-09-30T03:40:50;10.18;;;3.90;;
51824;SDS011;37879;52.986;6.282;2023-09-30T03:43:18;9.60;;;4.55;;
51824;SDS011;37879;52.986;6.282;2023-09-30T03:45:44;11.13;;;4.22;;
51824;SDS011;37879;52.986;6.282;2023-09-30T03:48:10;12.63;;;4.53;;
51824;SDS011;37879;52.986;6.282;2023-09-30T03:50:36;10.27;;;4.43;;
51824;SDS011;37879;52.986;6.282;2023-09-30T03:53:03;9.70;;;4.10;;
51824;SDS011;37879;52.986;6.282;2023-09-30T03:55:30;11.65;;;4.50;;
51824;SDS011;37879;52.986;6.282;2023-09-30T03:57:57;7.80;;;4.28;;
51824;SDS011;37879;52.986;6.282;2023-09-30T04:00:23;13.70;;;4.68;;
51824;SDS011;37879;52.986;6.282;2023-09-30T04:02:49;18.35;;;5.18;;
51824;SDS011;37879;52.986;6.282;2023-09-30T04:05:20;13.43;;;4.15;;
51824;SDS011;37879;52.986;6.282;2023-09-30T04:07:51;12.23;;;4.70;;
51824;SDS011;37879;52.986;6.282;2023-09-30T04:10:17;11.40;;;4.85;;
51824;SDS011;37879;52.986;6.282;2023-09-30T04:12:43;7.95;;;4.35;;
51824;SDS011;37879;52.986;6.282;2023-09-30T04:15:08;14.70;;;4.65;;
51824;SDS011;37879;52.986;6.282;2023-09-30T04:17:37;8.30;;;3.90;;
51824;SDS011;37879;52.986;6.282;2023-09-30T04:20:05;7.85;;;4.13;;
51824;SDS011;37879;52.986;6.282;2023-09-30T04:22:40;9.85;;;4.32;;
51824;SDS011;37879;52.986;6.282;2023-09-30T04:25:06;14.75;;;5.90;;
51824;SDS011;37879;52.986;6.282;2023-09-30T04:27:36;8.20;;;4.13;;
51824;SDS011;37879;52.986;6.282;2023-09-30T04:30:02;11.18;;;4.35;;
51824;SDS011;37879;52.986;6.282;2023-09-30T04:32:33;12.45;;;4.68;;
51824;SDS011;37879;52.986;6.282;2023-09-30T04:35:02;9.48;;;4.93;;
51824;SDS011;37879;52.986;6.282;2023-09-30T04:37:29;10.10;;;5.40;;
51824;SDS011;37879;52.986;6.282;2023-09-30T04:39:54;11.90;;;4.80;;
51824;SDS011;37879;52.986;6.282;2023-09-30T04:42:20;10.73;;;4.50;;
51824;SDS011;37879;52.986;6.282;2023-09-30T04:44:46;12.88;;;5.20;;
51824;SDS011;37879;52.986;6.282;2023-09-30T04:47:12;11.13;;;5.50;;
51824;SDS011;37879;52.986;6.282;2023-09-30T04:49:37;13.32;;;4.75;;
51824;SDS011;37879;52.986;6.282;2023-09-30T04:52:03;10.68;;;4.20;;
51824;SDS011;37879;52.986;6.282;2023-09-30T04:54:32;15.85;;;4.57;;
51824;SDS011;37879;52.986;6.282;2023-09-30T04:57:00;9.50;;;5.25;;
51824;SDS011;37879;52.986;6.282;2023-09-30T04:59:27;10.02;;;5.00;;
51824;SDS011;37879;52.986;6.282;2023-09-30T05:01:53;9.75;;;4.53;;
51824;SDS011;37879;52.986;6.282;2023-09-30T05:04:19;11.15;;;4.72;;
51824;SDS011;37879;52.986;6.282;2023-09-30T05:06:45;12.40;;;4.65;;
51824;SDS011;37879;52.986;6.282;2023-09-30T05:09:11;9.32;;;4.65;;
51824;SDS011;37879;52.986;6.282;2023-09-30T05:11:37;10.27;;;4.75;;
51824;SDS011;37879;52.986;6.282;2023-09-30T05:14:03;11.73;;;4.93;;
51824;SDS011;37879;52.986;6.282;2023-09-30T05:16:30;8.57;;;4.63;;
51824;SDS011;37879;52.986;6.282;2023-09-30T05:18:56;11.23;;;5.22;;
51824;SDS011;37879;52.986;6.282;2023-09-30T05:21:22;11.88;;;5.13;;
51824;SDS011;37879;52.986;6.282;2023-09-30T05:23:48;10.73;;;5.30;;
51824;SDS011;37879;52.986;6.282;2023-09-30T05:26:14;12.23;;;5.28;;
51824;SDS011;37879;52.986;6.282;2023-09-30T05:28:41;10.20;;;5.28;;
51824;SDS011;37879;52.986;6.282;2023-09-30T05:31:07;11.52;;;5.50;;
51824;SDS011;37879;52.986;6.282;2023-09-30T05:33:33;10.93;;;5.50;;
51824;SDS011;37879;52.986;6.282;2023-09-30T05:35:59;17.85;;;6.03;;
51824;SDS011;37879;52.986;6.282;2023-09-30T05:38:27;10.30;;;5.22;;
51824;SDS011;37879;52.986;6.282;2023-09-30T05:40:54;10.18;;;4.57;;
51824;SDS011;37879;52.986;6.282;2023-09-30T05:43:20;12.70;;;5.75;;
51824;SDS011;37879;52.986;6.282;2023-09-30T05:45:46;11.88;;;5.70;;
51824;SDS011;37879;52.986;6.282;2023-09-30T05:48:19;10.38;;;5.38;;
51824;SDS011;37879;52.986;6.282;2023-09-30T05:50:46;12.52;;;5.72;;
51824;SDS011;37879;52.986;6.282;2023-09-30T05:53:12;15.32;;;6.22;;
51824;SDS011;37879;52.986;6.282;2023-09-30T05:55:38;10.90;;;6.05;;
51824;SDS011;37879;52.986;6.282;2023-09-30T05:58:08;9.70;;;4.85;;
51824;SDS011;37879;52.986;6.282;2023-09-30T06:00:34;11.57;;;6.35;;
51824;SDS011;37879;52.986;6.282;2023-09-30T06:03:00;12.73;;;5.75;;
51824;SDS011;37879;52.986;6.282;2023-09-30T06:05:26;11.00;;;6.07;;
51824;SDS011;37879;52.986;6.282;2023-09-30T06:07:55;9.48;;;5.55;;
51824;SDS011;37879;52.986;6.282;2023-09-30T06:10:21;10.60;;;5.75;;
51824;SDS011;37879;52.986;6.282;2023-09-30T06:12:47;10.35;;;6.05;;
51824;SDS011;37879;52.986;6.282;2023-09-30T06:15:14;12.38;;;5.90;;
51824;SDS011;37879;52.986;6.282;2023-09-30T06:17:41;13.15;;;5.70;;
51824;SDS011;37879;52.986;6.282;2023-09-30T06:20:08;8.25;;;5.20;;
51824;SDS011;37879;52.986;6.282;2023-09-30T06:22:41;12.75;;;6.03;;
51824;SDS011;37879;52.986;6.282;2023-09-30T06:25:08;11.73;;;6.05;;
51824;SDS011;37879;52.986;6.282;2023-09-30T06:27:34;11.10;;;6.10;;
51824;SDS011;37879;52.986;6.282;2023-09-30T06:30:00;12.82;;;5.57;;
51824;SDS011;37879;52.986;6.282;2023-09-30T06:32:25;10.65;;;5.60;;
51824;SDS011;37879;52.986;6.282;2023-09-30T06:34:51;10.88;;;5.88;;
51824;SDS011;37879;52.986;6.282;2023-09-30T06:37:18;13.30;;;7.10;;
51824;SDS011;37879;52.986;6.282;2023-09-30T06:39:44;11.80;;;6.88;;
51824;SDS011;37879;52.986;6.282;2023-09-30T06:42:10;12.18;;;6.05;;
51824;SDS011;37879;52.986;6.282;2023-09-30T06:44:36;13.57;;;6.57;;
51824;SDS011;37879;52.986;6.282;2023-09-30T06:47:02;14.60;;;6.55;;
51824;SDS011;37879;52.986;6.282;2023-09-30T06:49:27;12.30;;;7.53;;
51824;SDS011;37879;52.986;6.282;2023-09-30T06:51:53;15.65;;;7.15;;
51824;SDS011;37879;52.986;6.282;2023-09-30T06:54:19;13.20;;;7.55;;
51824;SDS011;37879;52.986;6.282;2023-09-30T06:56:45;14.55;;;6.93;;
51824;SDS011;37879;52.986;6.282;2023-09-30T06:59:10;10.90;;;6.03;;
51824;SDS011;37879;52.986;6.282;2023-09-30T07:01:36;13.90;;;6.80;;
51824;SDS011;37879;52.986;6.282;2023-09-30T07:04:02;12.70;;;6.55;;
51824;SDS011;37879;52.986;6.282;2023-09-30T07:06:28;12.20;;;6.47;;
51824;SDS011;37879;52.986;6.282;2023-09-30T07:08:53;13.05;;;7.30;;
51824;SDS011;37879;52.986;6.282;2023-09-30T07:11:29;11.90;;;6.90;;
51824;SDS011;37879;52.986;6.282;2023-09-30T07:13:57;16.48;;;7.88;;
51824;SDS011;37879;52.986;6.282;2023-09-30T07:16:23;13.48;;;7.10;;
51824;SDS011;37879;52.986;6.282;2023-09-30T07:18:48;11.52;;;7.32;;
51824;SDS011;37879;52.986;6.282;2023-09-30T07:21:15;12.93;;;7.60;;
51824;SDS011;37879;52.986;6.282;2023-09-30T07:23:41;11.50;;;6.93;;
51824;SDS011;37879;52.986;6.282;2023-09-30T07:26:07;11.88;;;6.90;;
51824;SDS011;37879;52.986;6.282;2023-09-30T07:28:33;12.93;;;7.10;;
51824;SDS011;37879;52.986;6.282;2023-09-30T07:30:59;13.65;;;6.72;;
51824;SDS011;37879;52.986;6.282;2023-09-30T07:33:24;12.40;;;7.05;;
51824;SDS011;37879;52.986;6.282;2023-09-30T07:35:50;11.95;;;6.68;;
51824;SDS011;37879;52.986;6.282;2023-09-30T07:38:16;15.15;;;6.85;;
51824;SDS011;37879;52.986;6.282;2023-09-30T07:40:41;10.80;;;6.60;;
51824;SDS011;37879;52.986;6.282;2023-09-30T07:43:07;11.55;;;7.18;;
51824;SDS011;37879;52.986;6.282;2023-09-30T07:45:33;11.43;;;5.90;;
51824;SDS011;37879;52.986;6.282;2023-09-30T07:47:59;13.25;;;6.68;;
51824;SDS011;37879;52.986;6.282;2023-09-30T07:50:26;13.68;;;6.57;;
51824;SDS011;37879;52.986;6.282;2023-09-30T07:52:51;13.57;;;6.95;;
51824;SDS011;37879;52.986;6.282;2023-09-30T07:55:17;13.45;;;6.57;;
51824;SDS011;37879;52.986;6.282;2023-09-30T07:57:43;12.38;;;6.53;;
51824;SDS011;37879;52.986;6.282;2023-09-30T08:00:09;12.63;;;7.05;;
51824;SDS011;37879;52.986;6.282;2023-09-30T08:02:40;15.93;;;7.03;;
51824;SDS011;37879;52.986;6.282;2023-09-30T08:05:06;12.43;;;6.95;;
51824;SDS011;37879;52.986;6.282;2023-09-30T08:07:33;12.75;;;7.72;;
51824;SDS011;37879;52.986;6.282;2023-09-30T08:09:59;13.93;;;6.93;;
51824;SDS011;37879;52.986;6.282;2023-09-30T08:12:25;12.63;;;6.82;;
51824;SDS011;37879;52.986;6.282;2023-09-30T08:14:51;10.77;;;6.53;;
51824;SDS011;37879;52.986;6.282;2023-09-30T08:17:17;13.57;;;7.40;;
51824;SDS011;37879;52.986;6.282;2023-09-30T08:19:43;11.27;;;7.43;;
51824;SDS011;37879;52.986;6.282;2023-09-30T08:22:09;12.15;;;6.40;;
51824;SDS011;37879;52.986;6.282;2023-09-30T08:24:35;11.50;;;6.28;;
51824;SDS011;37879;52.986;6.282;2023-09-30T08:27:01;12.82;;;7.13;;
51824;SDS011;37879;52.986;6.282;2023-09-30T08:29:27;10.00;;;6.30;;
51824;SDS011;37879;52.986;6.282;2023-09-30T08:31:52;13.75;;;6.70;;
51824;SDS011;37879;52.986;6.282;2023-09-30T08:34:18;10.27;;;6.47;;
51824;SDS011;37879;52.986;6.282;2023-09-30T08:36:46;11.32;;;6.57;;
51824;SDS011;37879;52.986;6.282;2023-09-30T08:39:12;11.80;;;7.13;;
51824;SDS011;37879;52.986;6.282;2023-09-30T08:41:37;17.35;;;7.38;;
51824;SDS011;37879;52.986;6.282;2023-09-30T08:44:03;10.25;;;6.80;;
51824;SDS011;37879;52.986;6.282;2023-09-30T08:46:30;15.90;;;6.90;;
51824;SDS011;37879;52.986;6.282;2023-09-30T08:49:00;8.75;;;6.07;;
51824;SDS011;37879;52.986;6.282;2023-09-30T08:51:31;10.20;;;6.15;;
51824;SDS011;37879;52.986;6.282;2023-09-30T08:53:57;13.52;;;6.13;;
51824;SDS011;37879;52.986;6.282;2023-09-30T08:56:25;14.27;;;7.18;;
51824;SDS011;37879;52.986;6.282;2023-09-30T08:58:57;14.02;;;7.00;;
51824;SDS011;37879;52.986;6.282;2023-09-30T09:01:30;11.15;;;6.20;;
51824;SDS011;37879;52.986;6.282;2023-09-30T09:03:56;12.75;;;7.38;;
51824;SDS011;37879;52.986;6.282;2023-09-30T09:06:23;16.98;;;7.47;;
51824;SDS011;37879;52.986;6.282;2023-09-30T09:08:49;12.25;;;6.57;;
51824;SDS011;37879;52.986;6.282;2023-09-30T09:11:16;13.20;;;6.68;;
51824;SDS011;37879;52.986;6.282;2023-09-30T09:13:49;14.40;;;6.65;;
51824;SDS011;37879;52.986;6.282;2023-09-30T09:16:15;13.88;;;6.25;;
51824;SDS011;37879;52.986;6.282;2023-09-30T09:18:45;14.02;;;6.53;;
51824;SDS011;37879;52.986;6.282;2023-09-30T09:21:13;10.55;;;5.93;;
51824;SDS011;37879;52.986;6.282;2023-09-30T09:23:43;12.00;;;7.00;;
51824;SDS011;37879;52.986;6.282;2023-09-30T09:26:10;10.43;;;6.32;;
51824;SDS011;37879;52.986;6.282;2023-09-30T09:28:38;10.18;;;5.82;;
51824;SDS011;37879;52.986;6.282;2023-09-30T09:31:26;11.48;;;5.32;;
51824;SDS011;37879;52.986;6.282;2023-09-30T09:33:54;10.75;;;5.40;;
51824;SDS011;37879;52.986;6.282;2023-09-30T09:36:20;9.20;;;5.18;;
51824;SDS011;37879;52.986;6.282;2023-09-30T09:38:47;10.68;;;5.07;;
51824;SDS011;37879;52.986;6.282;2023-09-30T09:41:19;9.57;;;4.63;;
51824;SDS011;37879;52.986;6.282;2023-09-30T09:43:48;9.23;;;4.70;;
51824;SDS011;37879;52.986;6.282;2023-09-30T09:46:17;11.15;;;4.95;;
51824;SDS011;37879;52.986;6.282;2023-09-30T09:48:44;9.30;;;5.13;;
51824;SDS011;37879;52.986;6.282;2023-09-30T09:51:12;13.30;;;4.90;;
51824;SDS011;37879;52.986;6.282;2023-09-30T09:53:39;10.95;;;5.07;;
51824;SDS011;37879;52.986;6.282;2023-09-30T09:56:07;11.02;;;5.15;;
51824;SDS011;37879;52.986;6.282;2023-09-30T09:58:35;8.35;;;4.32;;
51824;SDS011;37879;52.986;6.282;2023-09-30T10:01:05;9.05;;;3.40;;
51824;SDS011;37879;52.986;6.282;2023-09-30T10:03:31;8.90;;;3.78;;
51824;SDS011;37879;52.986;6.282;2023-09-30T10:05:58;5.93;;;3.13;;
51824;SDS011;37879;52.986;6.282;2023-09-30T10:08:43;10.55;;;3.70;;
51824;SDS011;37879;52.986;6.282;2023-09-30T10:11:18;7.60;;;3.10;;
51824;SDS011;37879;52.986;6.282;2023-09-30T10:13:50;6.78;;;2.38;;
51824;SDS011;37879;52.986;6.282;2023-09-30T10:19:11;6.18;;;2.67;;
51824;SDS011;37879;52.986;6.282;2023-09-30T10:21:37;5.75;;;2.20;;
51824;SDS011;37879;52.986;6.282;2023-09-30T10:40:47;6.05;;;2.70;;
51824;SDS011;37879;52.986;6.282;2023-09-30T10:43:32;7.57;;;2.50;;
51824;SDS011;37879;52.986;6.282;2023-09-30T10:46:00;5.78;;;1.75;;
51824;SDS011;37879;52.986;6.282;2023-09-30T10:50:53;6.40;;;2.72;;
51824;SDS011;37879;52.986;6.282;2023-09-30T10:53:21;9.30;;;3.25;;
51824;SDS011;37879;52.986;6.282;2023-09-30T10:55:53;5.43;;;2.15;;
51824;SDS011;37879;52.986;6.282;2023-09-30T10:58:21;8.77;;;2.13;;
51824;SDS011;37879;52.986;6.282;2023-09-30T11:00:53;5.60;;;1.75;;
51824;SDS011;37879;52.986;6.282;2023-09-30T11:03:20;5.75;;;1.98;;
51824;SDS011;37879;52.986;6.282;2023-09-30T11:05:50;4.60;;;1.77;;
51824;SDS011;37879;52.986;6.282;2023-09-30T11:08:20;5.47;;;1.75;;
51824;SDS011;37879;52.986;6.282;2023-09-30T11:10:51;6.60;;;2.10;;
51824;SDS011;37879;52.986;6.282;2023-09-30T11:13:18;5.30;;;1.85;;
51824;SDS011;37879;52.986;6.282;2023-09-30T11:15:45;6.50;;;2.05;;
51824;SDS011;37879;52.986;6.282;2023-09-30T11:18:17;3.50;;;1.38;;
51824;SDS011;37879;52.986;6.282;2023-09-30T11:20:43;6.25;;;1.67;;
51824;SDS011;37879;52.986;6.282;2023-09-30T11:23:12;5.13;;;1.58;;
51824;SDS011;37879;52.986;6.282;2023-09-30T11:25:39;5.53;;;1.17;;
51824;SDS011;37879;52.986;6.282;2023-09-30T11:28:24;5.03;;;1.23;;
51824;SDS011;37879;52.986;6.282;2023-09-30T11:33:24;4.43;;;1.33;;
51824;SDS011;37879;52.986;6.282;2023-09-30T11:36:05;5.93;;;1.52;;
51824;SDS011;37879;52.986;6.282;2023-09-30T11:38:32;4.60;;;1.35;;
51824;SDS011;37879;52.986;6.282;2023-09-30T11:41:03;3.47;;;1.45;;
51824;SDS011;37879;52.986;6.282;2023-09-30T11:43:31;5.20;;;1.63;;
51824;SDS011;37879;52.986;6.282;2023-09-30T11:48:37;5.32;;;1.58;;
51824;SDS011;37879;52.986;6.282;2023-09-30T11:51:03;4.07;;;0.98;;
51824;SDS011;37879;52.986;6.282;2023-09-30T11:53:30;4.72;;;1.05;;
51824;SDS011;37879;52.986;6.282;2023-09-30T11:55:57;2.25;;;1.20;;
51824;SDS011;37879;52.986;6.282;2023-09-30T11:58:24;4.43;;;1.77;;
51824;SDS011;37879;52.986;6.282;2023-09-30T12:00:58;5.15;;;1.63;;
51824;SDS011;37879;52.986;6.282;2023-09-30T12:03:27;4.82;;;1.60;;
51824;SDS011;37879;52.986;6.282;2023-09-30T12:05:53;7.07;;;1.83;;
51824;SDS011;37879;52.986;6.282;2023-09-30T12:08:20;3.13;;;1.40;;
51824;SDS011;37879;52.986;6.282;2023-09-30T12:10:49;3.08;;;1.23;;
51824;SDS011;37879;52.986;6.282;2023-09-30T12:13:15;5.72;;;1.63;;
51824;SDS011;37879;52.986;6.282;2023-09-30T12:15:41;2.95;;;1.20;;
51824;SDS011;37879;52.986;6.282;2023-09-30T12:18:07;6.95;;;2.10;;
51824;SDS011;37879;52.986;6.282;2023-09-30T12:20:35;4.47;;;0.98;;
51824;SDS011;37879;52.986;6.282;2023-09-30T12:23:01;4.55;;;1.30;;
51824;SDS011;37879;52.986;6.282;2023-09-30T12:25:27;3.17;;;1.20;;
51824;SDS011;37879;52.986;6.282;2023-09-30T12:27:53;3.53;;;1.00;;
51824;SDS011;37879;52.986;6.282;2023-09-30T12:30:20;4.50;;;1.30;;
51824;SDS011;37879;52.986;6.282;2023-09-30T12:32:46;4.18;;;1.25;;
51824;SDS011;37879;52.986;6.282;2023-09-30T12:35:12;3.88;;;1.10;;
51824;SDS011;37879;52.986;6.282;2023-09-30T12:37:38;4.55;;;1.05;;
51824;SDS011;37879;52.986;6.282;2023-09-30T12:40:06;3.53;;;1.27;;
51824;SDS011;37879;52.986;6.282;2023-09-30T12:42:33;4.03;;;1.40;;
51824;SDS011;37879;52.986;6.282;2023-09-30T12:45:01;5.57;;;1.50;;
51824;SDS011;37879;52.986;6.282;2023-09-30T12:47:27;5.38;;;1.20;;
51824;SDS011;37879;52.986;6.282;2023-09-30T12:49:53;3.03;;;1.08;;
51824;SDS011;37879;52.986;6.282;2023-09-30T12:52:19;4.15;;;1.77;;
51824;SDS011;37879;52.986;6.282;2023-09-30T12:54:46;3.33;;;1.20;;
51824;SDS011;37879;52.986;6.282;2023-09-30T12:57:13;4.63;;;1.52;;
51824;SDS011;37879;52.986;6.282;2023-09-30T12:59:42;3.70;;;1.65;;
51824;SDS011;37879;52.986;6.282;2023-09-30T13:02:11;5.80;;;1.60;;
51824;SDS011;37879;52.986;6.282;2023-09-30T13:04:37;2.83;;;1.30;;
51824;SDS011;37879;52.986;6.282;2023-09-30T13:07:08;3.15;;;1.27;;
51824;SDS011;37879;52.986;6.282;2023-09-30T13:09:35;8.48;;;2.35;;
51824;SDS011;37879;52.986;6.282;2023-09-30T13:12:04;5.50;;;1.58;;
51824;SDS011;37879;52.986;6.282;2023-09-30T13:14:30;4.03;;;1.30;;
51824;SDS011;37879;52.986;6.282;2023-09-30T13:16:56;8.88;;;1.63;;
51824;SDS011;37879;52.986;6.282;2023-09-30T13:19:21;3.50;;;1.33;;
51824;SDS011;37879;52.986;6.282;2023-09-30T13:21:50;3.63;;;1.27;;
51824;SDS011;37879;52.986;6.282;2023-09-30T13:24:18;3.90;;;1.33;;
51824;SDS011;37879;52.986;6.282;2023-09-30T13:26:44;9.48;;;2.30;;
51824;SDS011;37879;52.986;6.282;2023-09-30T13:29:11;3.53;;;1.08;;
51824;SDS011;37879;52.986;6.282;2023-09-30T13:31:38;5.13;;;1.83;;
51824;SDS011;37879;52.986;6.282;2023-09-30T13:34:07;3.65;;;1.35;;
51824;SDS011;37879;52.986;6.282;2023-09-30T13:36:33;5.60;;;1.75;;
51824;SDS011;37879;52.986;6.282;2023-09-30T13:38:59;7.18;;;1.77;;
51824;SDS011;37879;52.986;6.282;2023-09-30T13:41:26;10.05;;;2.28;;
51824;SDS011;37879;52.986;6.282;2023-09-30T13:43:52;4.90;;;1.63;;
51824;SDS011;37879;52.986;6.282;2023-09-30T13:46:18;4.55;;;1.77;;
51824;SDS011;37879;52.986;6.282;2023-09-30T13:48:44;4.70;;;1.35;;
51824;SDS011;37879;52.986;6.282;2023-09-30T13:51:10;3.85;;;1.42;;
51824;SDS011;37879;52.986;6.282;2023-09-30T13:53:36;4.70;;;1.90;;
51824;SDS011;37879;52.986;6.282;2023-09-30T13:56:02;4.28;;;1.40;;
51824;SDS011;37879;52.986;6.282;2023-09-30T13:58:30;4.65;;;1.92;;
51824;SDS011;37879;52.986;6.282;2023-09-30T14:00:56;6.90;;;1.63;;
51824;SDS011;37879;52.986;6.282;2023-09-30T14:03:22;5.32;;;1.65;;
51824;SDS011;37879;52.986;6.282;2023-09-30T14:05:51;4.53;;;1.08;;
51824;SDS011;37879;52.986;6.282;2023-09-30T14:08:18;3.53;;;1.30;;
51824;SDS011;37879;52.986;6.282;2023-09-30T14:10:44;6.75;;;1.88;;
51824;SDS011;37879;52.986;6.282;2023-09-30T14:13:09;5.55;;;1.42;;
51824;SDS011;37879;52.986;6.282;2023-09-30T14:15:35;5.88;;;1.65;;
51824;SDS011;37879;52.986;6.282;2023-09-30T14:18:02;4.50;;;1.38;;
51824;SDS011;37879;52.986;6.282;2023-09-30T14:20:28;6.07;;;1.45;;
51824;SDS011;37879;52.986;6.282;2023-09-30T14:22:54;4.85;;;1.30;;
51824;SDS011;37879;52.986;6.282;2023-09-30T14:25:22;4.35;;;1.27;;
51824;SDS011;37879;52.986;6.282;2023-09-30T14:27:48;4.10;;;1.27;;
51824;SDS011;37879;52.986;6.282;2023-09-30T14:30:14;5.32;;;1.58;;
51824;SDS011;37879;52.986;6.282;2023-09-30T14:32:41;4.90;;;1.65;;
51824;SDS011;37879;52.986;6.282;2023-09-30T14:35:07;4.47;;;1.17;;
51824;SDS011;37879;52.986;6.282;2023-09-30T14:37:34;2.22;;;1.25;;
51824;SDS011;37879;52.986;6.282;2023-09-30T14:40:01;6.70;;;1.83;;
51824;SDS011;37879;52.986;6.282;2023-09-30T14:42:30;5.30;;;1.33;;
51824;SDS011;37879;52.986;6.282;2023-09-30T14:44:56;4.90;;;1.40;;
51824;SDS011;37879;52.986;6.282;2023-09-30T14:47:22;3.45;;;1.45;;
51824;SDS011;37879;52.986;6.282;2023-09-30T14:49:48;4.35;;;1.50;;
51824;SDS011;37879;52.986;6.282;2023-09-30T14:52:14;5.70;;;1.27;;
51824;SDS011;37879;52.986;6.282;2023-09-30T14:54:40;3.50;;;1.42;;
51824;SDS011;37879;52.986;6.282;2023-09-30T14:57:06;4.80;;;1.50;;
51824;SDS011;37879;52.986;6.282;2023-09-30T14:59:33;3.17;;;1.13;;
51824;SDS011;37879;52.986;6.282;2023-09-30T15:01:59;4.22;;;1.85;;
51824;SDS011;37879;52.986;6.282;2023-09-30T15:04:25;4.55;;;1.52;;
51824;SDS011;37879;52.986;6.282;2023-09-30T15:06:51;4.63;;;1.00;;